Fort Calhoun, Nebraska
Current Conditions -  °F | °C
As of 3:15 AM on Sunday 21 Dec 2014 (Local Time) from KBTA Reporting Station
Haze Haze  
Wind Chill: 29°   Ceiling: 200
Heat Index: 37°   Visibility: 3mi
Dew Point: 36°   Wind: 13mph
Humidity: 93%   Direction: 170°S
Pressure: 29.93"   Gusts: NA
Location:  41.46°N, 96.03°W
Report Text: KBTA 210915Z AUTO 17011KT 3SM BR OVC002 03/02 A2993 RMK AO2 T00300020
Loading
Personal Weather Stations






























Interactive Weather Map New forecast layout! Learn more

10-Day Weather Forecast

Advertisements
Track Severe Weather on mobile